首页
METAR-TAF:

METAR-TAF

机场 :

Riverton Regional Airport

Riverton, 怀俄明州, 美国

纬度: 43-03-43N, 经度: 108-26-47W, 海拔: 1684米

当前天气观测

该预报发布于25分钟前的23:53 UTC
风速18节,风向西转西南,有时为28节阵风
温度 24°C
湿度 15%
气压 1012 hPa
能見度: 16.1公里
少量云层高于11000英尺

METAR: KRIW 242353Z AUTO 25018G28KT 10SM FEW110 24/M04 A2988 RMK AO2 PK WND 26032/2254 SLP060 T02391039 10256 20206 56004

时间: 18:18 (00:18 UTC)

预报

该预报发布于46分钟前的23:32 UTC
预报有效从25日的 00点(UTC)到 25日的 24点(UTC)
风速15节,风向西,有时为25节阵风
能見度: 10公里
散云层高于10000英尺
从 25日的 0400点(UTC)
风速12节,风向西北
能見度: 10公里
少量云层高于20000英尺
从 25日的 0600点(UTC)
风速7节,风向西转西北
能見度: 10公里
散云层高于20000英尺
从 25日的 1400点(UTC)
风速5节,风向多变
能見度: 10公里
少量云层高于20000英尺
从 25日的 2200点(UTC)
风速13节,风向西转西南,有时为23节阵风
能見度: 10公里
散云层高于11000英尺

TAF: KRIW 242332Z 2500/2524 28015G25KT P6SM SCT100 FM250400 31012KT P6SM FEW200 FM250600 30007KT P6SM SCT200 FM251400 VRB05KT P6SM FEW200 FM252200 25013G23KT P6SM SCT110

超过4000个机场的气象观测和天气预报(METAR&TAF报告)。

可查询的气象台以黄色和红色小点在地图上表示。

将鼠标移到小点上方,可查看气象台名称。

然后点击查看天气观测和预报。

如需切换地图:点击带黑十字的绿色按钮放大地图;点击带横线的绿色按钮缩小地图;或者点击绿色箭头查看邻近地区的地图。


METAR-TAF: